Saint Albans, Vermont
Current Conditions -  °F | °C
As of 2:15 PM on Friday 28 Nov 2014 (Local Time) from KFSO Reporting Station
Overcast Overcast  
Wind Chill: 19°   Ceiling: 3600
Heat Index: 24°   Visibility: 10mi
Dew Point: 15°   Wind: 5mph
Humidity: 69%   Direction: 290°WNW
Pressure: 30.11"   Gusts: NA
Location:  44.81°N, 73.08°W
Report Text: KFSO 281915Z AUTO 29004KT 10SM SCT026 OVC036 M04/M09 A3011 RMK AO2 T10421092
Loading
Personal Weather Stations






























Interactive Weather Map New forecast layout! Learn more

10-Day Weather Forecast

Advertisements
Track Severe Weather on mobile